メインページ
METAR-TAF:

METAR-TAF

空港 :

ナジャフ, イラク

緯度: 31-59-23N, 経度: 44-24-15E, 海抜: 31m

現時点の気象観測

当レポートは20分前の23:00(UTC)に作成
西/南西の風 5kt
気温 8°C
湿度 93%
気圧 1026 hPa
視程: 8000m

METAR: ORNI 152300Z 24005KT 8000 NSC 08/07 Q1026 NOSIG

時間: 02:20 (23:20 UTC)

予報

当レポートは7時間20分前の16:00(UTC)に作成
予報は15日の 18時(UTC)から 16日の 18時(UTC)まで有効
北西の風 8kt
視程: 8000m
16日の 08時(UTC)から 16日の 10時(UTC)まで徐々に
南/南東の風 8kt

TAF: ORNI 151600Z 1518/1618 32008KT 8000 NSC BECMG 1608/1610 16008KT

4,000以上の空港の気象観測と天気予報(METAR報とTAF報)

利用可能な観測所は地図上に黄色い丸と赤い丸で示す。

丸の上にカーソルを重ねると観測所名を参照できる。

次にクリックすると気象観測と天気予報を参照できる。

マップの切り替え:黒色「×」印の緑ボタンをクリックして拡大、「-」印の緑ボタンをクリックして縮小、緑色の三角印をクリックして隣りの地図に切り替え


METAR-TAF: